• Join FlightAware (Why Join?)
  • Login
  • US Flag 
06:29AM EST


 

Airport Tracker/Info


-or-


 

Live Flight TrackerFlight Track Log ✈ N82HK ✈ 24-May-2013 ✈ KFXE - KCGC

Flight Track Log - Related Links

Times and Time Zones

All times are in EDT time to prevent confusion due to time zone crossing. See the N82HK flight status page for this flight to view local times or setup timezone preferences in your user account.

Time Position Orientation Groundspeed Altitude Reporting Facility
EDT Latitude Longitude Course Direction KTS MPH feet Rate Location/Type
09:14AM 26.1953 -80.1769 311° West 90 104 200  Level Miami Center
09:16AM 26.2217 -80.2103 311° West 113 130 1,700 840 Climbing Miami Center
09:17AM 26.2333 -80.2475 289° West 154 177 2,200 480 Climbing Miami Center
09:18AM 26.2344 -80.2917 272° West 150 173 2,700 540 Climbing Miami Center
09:19AM 26.2353 -80.3381 271° West 143 165 3,400 660 Climbing Miami Center
09:20AM 26.2364 -80.3819 272° West 143 165 4,100 660 Climbing Miami Center
09:21AM 26.2606 -80.4197 306° West 145 167 4,800 600 Climbing Miami Center
09:22AM 26.2614 -80.4639 271° West 142 163 5,400 540 Climbing Miami Center
09:23AM 26.2667 -80.5033 278° West 147 169 6,000 600 Climbing Miami Center
09:24AM 26.2697 -80.5519 274° West 152 175 6,700 600 Climbing Miami Center
09:25AM 26.2708 -80.5939 272° West 152 175 7,200 540 Climbing Miami Center
09:26AM 26.2736 -80.6425 274° West 152 175 7,800 360 Climbing Miami Center
09:27AM 26.3044 -80.6667 325° Northwest 135 155 8,000 60 Climbing Miami Center
09:28AM 26.3456 -80.6911 332° Northwest 153 176 8,000  Level Miami Center
09:29AM 26.3783 -80.7108 332° Northwest 158 182 8,000  Level Miami Center
09:30AM 26.4172 -80.7400 326° Northwest 158 182 8,000  Level Miami Center
09:31AM 26.4481 -80.7642 325° Northwest 158 182 8,000  Level Miami Center
09:32AM 26.4847 -80.7931 325° Northwest 152 175 8,000  Level Miami Center
09:33AM 26.5236 -80.8200 328° Northwest 152 175 8,000  Level Miami Center
09:34AM 26.5583 -80.8489 323° Northwest 152 175 8,000  Level Miami Center
09:35AM 26.5933 -80.8758 325° Northwest 152 175 8,000  Level Miami Center
09:36AM 26.6239 -80.9000 325° Northwest 152 175 8,000  Level Miami Center
09:37AM 26.6586 -80.9267 326° Northwest 152 175 8,000  Level Miami Center
09:38AM 26.6953 -80.9583 322° Northwest 152 175 8,000  Level Miami Center
09:39AM 26.7300 -80.9850 326° Northwest 152 175 8,000  Level Miami Center
09:40AM 26.7628 -81.0142 322° Northwest 152 175 8,000  Level Miami Center
09:41AM 26.7953 -81.0386 326° Northwest 152 175 8,000  Level Miami Center
09:42AM 26.8300 -81.0678 323° Northwest 152 175 8,000  Level Miami Center
09:43AM 26.8689 -81.0969 326° Northwest 146 168 8,000  Level Miami Center
09:44AM 26.9014 -81.1261 321° Northwest 151 174 8,000  Level Miami Center
09:45AM 26.9361 -81.1531 325° Northwest 151 174 8,000  Level Miami Center
09:46AM 26.9667 -81.1775 325° Northwest 151 174 8,000  Level Miami Center
09:47AM 27.0014 -81.2044 325° Northwest 151 174 8,000  Level Miami Center
09:48AM 27.0381 -81.2361 322° Northwest 151 174 8,000  Level Miami Center
09:49AM 27.0725 -81.2653 323° Northwest 151 174 8,000  Level Miami Center
09:50AM 27.1072 -81.2922 325° Northwest 151 174 8,000  Level Miami Center
09:51AM 27.1378 -81.3144 327° Northwest 151 174 8,000  Level Miami Center
09:52AM 27.1767 -81.3464 324° Northwest 151 174 8,000 -60 Level Miami Center
09:53AM 27.2028 -81.3731 318° Northwest 151 174 7,900 -60 Descending Miami Center
09:54AM 27.2353 -81.4047 319° Northwest 151 174 7,900  Level Miami Center
09:55AM 27.2700 -81.4294 328° Northwest 151 174 7,900  Level Miami Center
09:56AM 27.3047 -81.4564 325° Northwest 151 174 7,900  Level Miami Center
09:57AM 27.3369 -81.4858 321° Northwest 151 174 7,900  Level Miami Center
09:58AM 27.3717 -81.5128 325° Northwest 151 174 7,900  Level Miami Center
09:59AM 27.4064 -81.5400 325° Northwest 151 174 7,900  Level Miami Center
10:00AM 27.4408 -81.5672 325° Northwest 151 174 7,900  Level Miami Center
10:01AM 27.4733 -81.5967 321° Northwest 151 174 7,900  Level Miami Center
10:02AM 27.5100 -81.6239 327° Northwest 151 174 7,900  Level Miami Center
10:03AM 27.5444 -81.6533 323° Northwest 151 174 7,900  Level Miami Center
10:04AM 27.5769 -81.6806 323° Northwest 151 174 7,900  Level Miami Center
10:05AM 27.6117 -81.7053 328° Northwest 148 170 8,000  Climbing Miami Center
10:06AM 27.6461 -81.7325 325° Northwest 148 170 8,000  Level Miami Center
10:07AM 27.6828 -81.7622 324° Northwest 148 170 8,000  Level Miami Center
10:08AM 27.7150 -81.7917 321° Northwest 148 170 8,000  Level Miami Center
10:09AM 27.7456 -81.8142 327° Northwest 148 170 8,000  Level Miami Center
10:10AM 27.7781 -81.8439 321° Northwest 148 170 8,000 -60 Level Miami Center
10:11AM 27.8144 -81.8758 322° Northwest 156 180 7,900 -60 Descending Miami Center
10:12AM 27.8511 -81.9033 326° Northwest 156 180 7,900  Level Miami Center
10:13AM 27.8856 -81.9306 325° Northwest 156 180 7,900  Level Miami Center
10:14AM 27.9181 -81.9603 321° Northwest 149 171 7,900  Level Miami Center
10:15AM 27.9500 -81.9833 327° Northwest 150 173 8,000  Climbing Tampa TRACON
10:16AM 27.9833 -82.0167 319° Northwest 150 173 8,000  Level Tampa TRACON
10:17AM 28.0167 -82.0333 336° Northwest 154 177 8,000  Level Tampa TRACON
10:18AM 28.0667 -82.0667 330° Northwest 154 177 8,000  Level Tampa TRACON
10:19AM 28.1000 -82.0833 336° Northwest 153 176 8,000 -60 Level Tampa TRACON
10:20AM 28.1333 -82.1167 319° Northwest 155 178 7,900 -300 Descending Tampa TRACON
10:21AM 28.1833 -82.1333 344° North 164 189 7,500 -480 Descending Tampa TRACON
10:22AM 28.2167 -82.1667 319° Northwest 171 197 7,000 -600 Descending Tampa TRACON
10:23AM 28.2667 -82.1833 344° North 177 204 6,400 -720 Descending Tampa TRACON
10:24AM 28.3000 -82.2167 319° Northwest 177 204 5,700 -900 Descending Tampa TRACON
10:25AM 28.3333 -82.2333 336° Northwest 174 200 4,800 -840 Descending Tampa TRACON
10:26AM 28.3833 -82.2667 330° Northwest 167 192 4,100 -480 Descending Tampa TRACON
10:27AM 28.4167 -82.2833 336° Northwest 156 180 3,900 -120 Descending Tampa TRACON
10:28AM 28.4500 -82.3167 319° Northwest 147 169 3,900  Level Tampa TRACON
10:29AM 28.5000 -82.3333 344° North 146 168 4,000  Climbing Tampa TRACON
10:30AM 28.5167 -82.3500 319° Northwest 144 166 3,900  Descending Tampa TRACON
10:31AM 28.5494 -82.3775 324° Northwest 142 163 4,000  Climbing Jacksonville Center
10:32AM 28.5850 -82.3986 332° Northwest 143 165 4,000  Level Jacksonville Center
10:33AM 28.6228 -82.4194 334° Northwest 144 166 4,000  Level Jacksonville Center
10:34AM 28.6561 -82.4408 331° Northwest 143 165 4,000  Level Jacksonville Center
10:35AM 28.6917 -82.4619 332° Northwest 142 163 4,000  Level Jacksonville Center
10:36AM 28.7294 -82.4878 329° Northwest 142 163 4,000  Level Jacksonville Center